createdAt,value
2023-01-21T00:09:25.672Z,1022.26
2023-01-21T00:24:26.208Z,1022.35
2023-01-21T00:39:26.811Z,1022.39
2023-01-21T00:54:27.819Z,1022.53
2023-01-21T01:09:30.337Z,1022.76
2023-01-21T01:24:30.563Z,1022.81
2023-01-21T01:39:31.525Z,1023.05
2023-01-21T01:54:31.698Z,1023.07
2023-01-21T02:09:32.305Z,1023.19
2023-01-21T02:24:32.923Z,1023.07
2023-01-21T02:39:33.533Z,1023.21
2023-01-21T02:54:35.135Z,1023.38
2023-01-21T03:09:36.732Z,1023.43
2023-01-21T03:24:37.353Z,1023.41
2023-01-21T03:39:37.921Z,1023.61
2023-01-21T03:54:38.541Z,1023.60
2023-01-21T04:09:39.146Z,1023.38
2023-01-21T04:24:39.762Z,1023.42
2023-01-21T04:39:40.778Z,1023.51
2023-01-21T04:54:40.978Z,1023.66
2023-01-21T05:09:41.538Z,1023.68
2023-01-21T05:24:42.176Z,1023.74
2023-01-21T05:39:43.199Z,1023.89
2023-01-21T05:54:59.921Z,1024.11
2023-01-21T06:09:49.389Z,1024.19
2023-01-21T06:24:49.576Z,1024.29
2023-01-21T06:39:50.183Z,1024.30
2023-01-21T06:54:50.770Z,1024.52
2023-01-21T07:09:51.811Z,1024.79
2023-01-21T07:24:53.031Z,1024.79
2023-01-21T07:39:54.673Z,1024.78
2023-01-21T07:54:55.210Z,1024.95
2023-01-21T08:09:55.853Z,1025.00
2023-01-21T08:24:56.836Z,1024.97
2023-01-21T08:39:57.621Z,1024.82
2023-01-21T08:54:58.797Z,1024.94
2023-01-21T09:09:59.431Z,1024.93
2023-01-21T09:25:00.430Z,1025.01
2023-01-21T09:40:00.651Z,1025.00
2023-01-21T09:55:01.238Z,1024.99
2023-01-21T10:10:01.831Z,1025.04
2023-01-21T10:25:02.866Z,1025.07
2023-01-21T10:40:03.217Z,1024.88
2023-01-21T10:55:04.717Z,1024.78
2023-01-21T11:10:05.940Z,1024.68
2023-01-21T11:25:06.523Z,1024.60
2023-01-21T11:40:07.135Z,1024.43
2023-01-21T11:55:07.392Z,1024.07
2023-01-21T12:10:07.900Z,1023.85
2023-01-21T12:25:08.469Z,1023.84
2023-01-21T12:40:09.083Z,1023.72
2023-01-21T12:55:09.698Z,1023.62
2023-01-21T13:10:11.344Z,1023.70
2023-01-21T13:25:12.438Z,1023.78
2023-01-21T13:40:13.575Z,1023.62
2023-01-21T13:55:18.130Z,1023.59
2023-01-21T14:10:19.213Z,1023.37
2023-01-21T14:25:20.325Z,1023.09
2023-01-21T14:40:20.908Z,1023.33
2023-01-21T14:55:21.538Z,1023.17
2023-01-21T15:10:22.148Z,1023.09
2023-01-21T15:25:22.743Z,1023.16
2023-01-21T15:40:23.322Z,1022.93
2023-01-21T15:55:24.349Z,1022.85
2023-01-21T16:10:24.567Z,1022.46
2023-01-21T16:25:25.197Z,1022.44
2023-01-21T16:40:26.208Z,1022.51
2023-01-21T16:55:26.441Z,1022.80
2023-01-21T17:10:26.989Z,1022.77
2023-01-21T17:25:29.606Z,1022.43
2023-01-21T17:40:30.233Z,1022.66
2023-01-21T17:55:30.847Z,1022.77
2023-01-21T18:10:32.432Z,1022.75
2023-01-21T18:25:33.578Z,1022.90
2023-01-21T18:40:34.196Z,1022.99
2023-01-21T18:55:34.594Z,1022.99
2023-01-21T19:10:35.012Z,1023.09
2023-01-21T19:25:35.139Z,1023.12
2023-01-21T19:40:35.712Z,1023.13
2023-01-21T19:55:36.336Z,1023.38
2023-01-21T20:10:36.914Z,1023.49
2023-01-21T20:25:37.113Z,1023.53
2023-01-21T20:40:37.610Z,1023.60
2023-01-21T20:55:38.232Z,1023.77
2023-01-21T21:10:39.255Z,1023.80
2023-01-21T21:25:39.417Z,1023.90
2023-01-21T21:40:40.003Z,1024.05
2023-01-21T21:55:40.654Z,1024.17
2023-01-21T22:10:41.630Z,1024.18
2023-01-21T22:25:41.849Z,1024.28
2023-01-21T22:40:42.453Z,1024.37
2023-01-21T22:55:43.464Z,1024.42
2023-01-21T23:10:44.033Z,1024.53
2023-01-21T23:25:44.673Z,1024.45
2023-01-21T23:40:44.959Z,1024.53
2023-01-21T23:55:45.488Z,1024.55
